Prairie City, OR (97869)

6:50 PM PDT on October 20, 2014 (GMT -0700)
SW Prairie City | Change Station
CLOSE
Current Station
Personal Weather Station
Location: Prairie City, OR
Elevation: 3547 ft
Nearby Weather Stations

Elev 3547 ft 44.45 °N, 118.72 °W | Updated 45 seconds ago

Overcast
Overcast
49.7 °F
Feels Like 47 °F
N
7.0
Wind Variable Wind from WNW
Gusts 16.0 mph

Today
High -- | Low -- °F
--% Chance of Precip.
Yesterday
High -- | Low -- °F
Precip. -- in
7:16 AM 6:02 PM
Waning Crescent, 8% visible
Pressure 29.85 in
Visibility 10.0 miles
Clouds Scattered Clouds 2800 ft
Mostly Cloudy 3600 ft
Overcast 9500 ft
Windchill 47 °F
Dew Point 44 °F
Humidity 80%
Rainfall 0.00 in
Snow Depth 0 in
UV 0 out of 12
Pollen 2.50 out of 12
Air Quality Not available.
Flu Activity Sporadic
METAR KGCD 210135Z AUTO 27016G28KT 10SM SCT028 BKN036 OVC095 10/07 A2985 RMK AO2 T01030073

More Conditions Fewer Conditions

Pressure 29.85 in
Visibility 10.0 miles
Clouds Scattered Clouds 2800 ft
Mostly Cloudy 3600 ft
Overcast 9500 ft
Windchill 47 °F
Dew Point 44 °F
Humidity 80%
Rainfall 0.00 in
Snow Depth 0 in
UV 0 out of 12
Pollen 2.50 out of 12
Air Quality Not available.
Flu Activity Sporadic
METAR KGCD 210135Z AUTO 27016G28KT 10SM SCT028 BKN036 OVC095 10/07 A2985 RMK AO2 T01030073

More Conditions Fewer Conditions

10-Day Weather Forecast

Almanac

Astronomy

Oct. 20, 2014 Rise Set
Actual Time 7:16 AM PDT 6:02 PM PDT
Civil Twilight 6:46 AM PDT 6:31 PM PDT
Nautical Twilight 6:13 AM PDT 7:05 PM PDT
Astronomical Twilight 5:39 AM PDT 7:38 PM PDT
Moon 4:02 AM PDT (10/20) 4:33 PM PDT (10/20)
Length of Visible Light 11h 44m
Length of Day
10h 45m
Tomorrow will be 2m 56s shorter.
Waning Crescent, 8% of the Moon is Illuminated
Today
Waning Crescent
Oct 23
New
Oct 30
First Quarter
Nov 6
Full
Nov 14
Last Quarter

Today's Extremes

State Highs State Lows

Community

WunderPhotos

Upload Photos

1,763,563 photos uploaded!

Nearby

Snow Depth

Station Depth Elevation
Blue Mountain Spring 0 in 5900 ft
Tipton 0 in 5150 ft
Gold Center 0 in 5340 ft
County Line 0 in 4800 ft
Snow Mountain 0 in 6220 ft

Earthquake Activity

City Distance Mag. Time & Date
No recent earthquake activity has been reported nearby.
Minimum magnitude displayed is 2.5.

Coastal Water Temperatures

Place Temperature
No Stations Reporting

Nearby Weather Stations